Time;durP1;ratioP1;P1;durP2;ratioP2;P2;SDS_P1;SDS_P2;PMS_P1;PMS_P2;Temp;Humidity;BMP_temperature;BMP_pressure;BME280_temperature;BME280_humidity;BME280_pressure;Samples;Min_cycle;Max_cycle;Signal;HPM_P1;HPM_P2
2022/11/12 00:02:16;;;;;;;9.90;9.00;;;6.90;99.90;;;;;;5014299;28;20206;-68
2022/11/12 00:04:42;;;;;;;9.03;8.20;;;6.80;99.90;;;;;;5013842;28;20177;-68
2022/11/12 00:07:08;;;;;;;12.80;9.30;;;6.80;99.90;;;;;;5014099;28;20172;-68
2022/11/12 00:09:33;;;;;;;11.73;8.17;;;6.70;99.90;;;;;;5013464;28;20230;-68
2022/11/12 00:11:59;;;;;;;15.53;9.37;;;6.70;99.90;;;;;;5013758;28;20570;-68
2022/11/12 00:14:24;;;;;;;8.60;7.90;;;6.70;99.90;;;;;;5013909;28;20251;-68
2022/11/12 00:16:50;;;;;;;9.40;8.50;;;6.70;99.90;;;;;;5012440;28;20188;-68
2022/11/12 00:19:15;;;;;;;10.20;9.30;;;6.60;99.90;;;;;;5013177;28;20203;-68
2022/11/12 00:21:41;;;;;;;10.27;9.27;;;6.70;99.90;;;;;;5012149;28;20295;-68
2022/11/12 00:24:07;;;;;;;11.37;9.87;;;6.60;99.90;;;;;;5013731;28;20700;-68
2022/11/12 00:26:32;;;;;;;9.47;8.70;;;6.70;99.90;;;;;;5013748;28;20279;-68
2022/11/12 00:28:58;;;;;;;9.80;8.90;;;6.60;99.90;;;;;;5013277;28;20172;-68
2022/11/12 00:31:23;;;;;;;9.73;9.03;;;6.60;99.90;;;;;;5011934;28;20704;-68
2022/11/12 00:33:49;;;;;;;9.27;8.40;;;6.60;99.90;;;;;;5013160;28;20217;-68
2022/11/12 00:36:15;;;;;;;9.90;8.93;;;6.50;99.90;;;;;;5013695;28;20173;-68
2022/11/12 00:38:40;;;;;;;9.13;8.33;;;6.60;99.90;;;;;;5013212;28;20199;-68
2022/11/12 00:41:06;;;;;;;8.50;7.80;;;6.60;99.90;;;;;;5012913;28;20208;-68
2022/11/12 00:43:32;;;;;;;9.47;8.60;;;6.50;99.90;;;;;;5012950;28;20184;-68
2022/11/12 00:45:57;;;;;;;8.77;8.17;;;6.50;99.90;;;;;;5013429;28;20194;-68
2022/11/12 00:48:23;;;;;;;10.43;9.43;;;6.40;99.90;;;;;;5013136;28;20263;-68
2022/11/12 00:50:48;;;;;;;14.57;8.67;;;6.30;99.90;;;;;;5012836;28;20191;-68
2022/11/12 00:53:14;;;;;;;9.70;8.70;;;6.20;99.90;;;;;;5012364;28;20195;-68
2022/11/12 00:55:39;;;;;;;8.37;7.70;;;6.20;99.90;;;;;;5013174;28;20175;-68
2022/11/12 00:58:05;;;;;;;11.73;8.57;;;6.00;99.90;;;;;;5013180;28;20275;-68
2022/11/12 01:00:31;;;;;;;9.33;8.43;;;6.00;99.90;;;;;;5012825;28;20223;-68
2022/11/12 01:02:56;;;;;;;11.23;9.20;;;6.00;99.90;;;;;;5013157;28;20168;-68
2022/11/12 01:05:22;;;;;;;9.60;8.80;;;6.00;99.90;;;;;;5012476;28;20184;-68
2022/11/12 01:07:47;;;;;;;8.77;7.77;;;6.00;99.90;;;;;;5011796;28;20168;-68
2022/11/12 01:10:13;;;;;;;8.10;7.50;;;6.00;99.90;;;;;;5011273;28;20708;-69
2022/11/12 01:12:39;;;;;;;10.07;9.17;;;6.00;99.90;;;;;;5012926;28;20234;-68
2022/11/12 01:15:05;;;;;;;9.97;7.17;;;6.00;99.90;;;;;;5012532;28;20226;-68
2022/11/12 01:17:31;;;;;;;8.90;8.20;;;6.00;99.90;;;;;;5012746;28;20184;-68
2022/11/12 01:19:57;;;;;;;9.37;8.53;;;5.90;99.90;;;;;;5011951;28;20277;-68
2022/11/12 01:22:22;;;;;;;9.37;8.53;;;5.90;99.90;;;;;;5012510;28;20179;-68
2022/11/12 01:24:48;;;;;;;8.70;8.00;;;5.90;99.90;;;;;;5012478;28;20183;-68
2022/11/12 01:27:14;;;;;;;9.93;8.93;;;5.90;99.90;;;;;;5012510;28;20531;-68
2022/11/12 01:29:40;;;;;;;8.63;8.00;;;5.90;99.90;;;;;;5011973;28;20188;-68
2022/11/12 01:32:06;;;;;;;9.07;8.27;;;5.90;99.90;;;;;;5012469;28;20192;-68
2022/11/12 01:34:32;;;;;;;8.83;8.13;;;5.80;99.90;;;;;;5010835;28;20184;-69
2022/11/12 01:36:58;;;;;;;10.53;9.63;;;5.80;99.90;;;;;;5011335;28;20219;-68
2022/11/12 01:39:23;;;;;;;8.47;7.43;;;5.80;99.90;;;;;;5011537;28;20305;-68
2022/11/12 01:41:49;;;;;;;9.40;8.60;;;5.80;99.90;;;;;;5012148;28;20200;-68
2022/11/12 01:44:19;;;;;;;8.77;8.00;;;5.80;99.90;;;;;;5012496;28;20520;-68
2022/11/12 01:47:12;;;;;;;8.37;7.77;;;5.70;99.90;;;;;;5012188;28;20211;-68
2022/11/12 01:49:40;;;;;;;10.40;9.07;;;5.60;99.90;;;;;;5012375;28;20709;-68
2022/11/12 01:52:37;;;;;;;14.93;8.13;;;5.60;99.90;;;;;;5011829;28;20290;-68
2022/11/12 01:55:11;;;;;;;8.47;7.70;;;5.50;99.90;;;;;;5012233;28;20175;-68
2022/11/12 01:57:47;;;;;;;8.60;7.77;;;5.40;99.90;;;;;;5012095;28;20270;-68
2022/11/12 02:00:14;;;;;;;7.97;7.23;;;5.40;99.90;;;;;;5011716;28;20258;-68
2022/11/12 02:02:42;;;;;;;8.40;7.80;;;5.40;99.90;;;;;;5010442;28;20283;-68
2022/11/12 02:05:10;;;;;;;9.07;8.20;;;5.40;99.90;;;;;;5010135;28;20172;-68
2022/11/12 02:07:39;;;;;;;11.30;8.73;;;5.50;99.90;;;;;;5011851;28;20538;-68
2022/11/12 02:10:06;;;;;;;8.57;7.70;;;5.50;99.90;;;;;;5011546;28;20184;-68
2022/11/12 02:15:16;;;;;;;9.43;8.67;;;5.50;99.90;;;;;;5012174;28;20263;-68
2022/11/12 02:17:42;;;;;;;9.43;8.63;;;5.50;99.90;;;;;;5011676;28;20258;-68
2022/11/12 02:20:10;;;;;;;8.87;8.27;;;5.60;99.90;;;;;;5009887;28;20208;-68
2022/11/12 02:22:35;;;;;;;10.13;8.47;;;5.60;99.90;;;;;;5011835;28;20172;-68
2022/11/12 02:25:01;;;;;;;9.00;8.20;;;5.70;99.90;;;;;;5011629;28;20334;-68
2022/11/12 02:27:27;;;;;;;9.13;8.23;;;5.80;99.90;;;;;;5011687;28;20177;-68
2022/11/12 02:29:53;;;;;;;9.00;8.30;;;5.80;99.90;;;;;;5010966;28;20230;-68
2022/11/12 02:32:18;;;;;;;9.70;8.70;;;5.80;99.90;;;;;;5011475;28;20544;-68
2022/11/12 02:34:45;;;;;;;8.70;8.03;;;5.80;99.90;;;;;;5011346;28;20180;-68
2022/11/12 02:37:11;;;;;;;9.73;8.77;;;5.80;99.90;;;;;;5011724;28;20176;-68
2022/11/12 02:39:36;;;;;;;9.40;8.50;;;5.80;99.90;;;;;;5011204;28;20269;-68
2022/11/12 02:42:02;;;;;;;12.53;8.97;;;5.90;99.90;;;;;;5011865;28;20199;-68
2022/11/12 02:44:28;;;;;;;10.27;8.63;;;5.90;99.90;;;;;;5011310;28;20259;-68
2022/11/12 02:46:54;;;;;;;9.93;9.00;;;5.90;99.90;;;;;;5011626;28;20180;-68
2022/11/12 02:49:19;;;;;;;9.13;8.30;;;5.90;99.90;;;;;;5010999;28;20657;-68
2022/11/12 02:51:45;;;;;;;9.23;8.43;;;5.90;99.90;;;;;;5011469;28;20199;-68
2022/11/12 02:54:11;;;;;;;10.20;8.43;;;5.90;99.90;;;;;;5011306;28;20188;-67
2022/11/12 02:56:36;;;;;;;10.33;9.47;;;5.90;99.90;;;;;;5011597;28;20176;-68
2022/11/12 02:59:02;;;;;;;9.23;8.33;;;5.90;99.90;;;;;;5011262;28;20181;-68
2022/11/12 03:01:27;;;;;;;10.60;9.60;;;5.80;99.90;;;;;;5009450;28;20196;-68
2022/11/12 03:03:53;;;;;;;12.27;8.00;;;5.80;99.90;;;;;;5011491;28;20176;-68
2022/11/12 03:06:19;;;;;;;9.07;8.37;;;5.90;99.90;;;;;;5011371;28;20656;-68
2022/11/12 03:08:44;;;;;;;8.57;8.00;;;5.90;99.90;;;;;;5011287;28;20189;-68
2022/11/12 03:11:12;;;;;;;10.27;8.17;;;5.90;99.90;;;;;;5010922;28;20598;-68
2022/11/12 03:13:38;;;;;;;10.00;8.90;;;5.90;99.90;;;;;;5011220;28;20180;-67
2022/11/12 03:16:04;;;;;;;16.93;8.73;;;5.90;99.90;;;;;;5013311;28;20191;-68
2022/11/12 03:18:30;;;;;;;9.93;9.07;;;5.90;99.90;;;;;;5014718;28;20188;-68
2022/11/12 03:20:56;;;;;;;9.90;9.00;;;5.90;99.90;;;;;;5014543;28;20214;-67
2022/11/12 03:23:21;;;;;;;13.40;9.03;;;5.80;99.90;;;;;;5013259;28;20190;-67
2022/11/12 03:25:47;;;;;;;9.60;8.70;;;5.80;99.90;;;;;;5014873;28;20191;-68
2022/11/12 03:28:15;;;;;;;9.77;8.93;;;5.80;99.90;;;;;;5014436;28;20688;-68
2022/11/12 03:30:42;;;;;;;10.73;9.43;;;5.80;99.90;;;;;;5014540;28;20206;-67
2022/11/12 03:33:10;;;;;;;12.37;9.63;;;5.80;99.90;;;;;;5014547;28;20188;-67
2022/11/12 03:35:36;;;;;;;11.63;8.23;;;5.80;99.90;;;;;;5014642;28;20246;-68
2022/11/12 03:38:02;;;;;;;8.93;8.13;;;5.70;99.90;;;;;;5014433;28;20176;-68
2022/11/12 03:40:29;;;;;;;9.33;8.60;;;5.70;99.90;;;;;;5012713;28;20306;-67
2022/11/12 03:42:55;;;;;;;9.67;8.87;;;5.70;99.90;;;;;;5014306;28;20255;-68
2022/11/12 03:45:23;;;;;;;8.90;8.13;;;5.70;99.90;;;;;;5014564;28;20259;-68
2022/11/12 03:47:51;;;;;;;13.23;9.13;;;5.70;99.90;;;;;;5014179;28;20183;-68
2022/11/12 03:50:19;;;;;;;8.53;7.73;;;5.60;99.90;;;;;;5014011;28;20192;-68
2022/11/12 03:52:46;;;;;;;8.97;8.20;;;5.50;99.90;;;;;;5014162;28;20183;-67
2022/11/12 03:55:16;;;;;;;8.77;7.83;;;5.50;99.90;;;;;;5012630;28;20263;-67
2022/11/12 03:57:42;;;;;;;10.97;9.80;;;5.50;99.90;;;;;;5014237;28;20183;-67
2022/11/12 04:00:10;;;;;;;12.80;8.10;;;5.40;99.90;;;;;;5012260;28;20262;-68
2022/11/12 04:02:36;;;;;;;9.00;8.20;;;5.40;99.90;;;;;;5014090;28;20172;-67
2022/11/12 04:10:44;;;;;;;9.83;9.07;;;5.20;99.90;;;;;;5013499;28;20889;-67
2022/11/12 04:13:28;;;;;;;8.50;7.70;;;5.20;99.90;;;;;;5012666;28;20208;-68
2022/11/12 04:21:49;;;;;;;8.40;7.70;;;5.30;99.90;;;;;;5012626;28;20226;-67
2022/11/12 04:27:09;;;;;;;10.57;8.10;;;5.30;99.90;;;;;;5013092;28;20553;-68
2022/11/12 04:32:19;;;;;;;10.73;9.37;;;5.40;99.90;;;;;;5013427;28;20179;-66
2022/11/12 04:34:44;;;;;;;10.20;9.30;;;5.40;99.90;;;;;;5013383;28;20179;-67
2022/11/12 04:37:10;;;;;;;9.77;8.87;;;5.40;99.90;;;;;;5013668;28;20234;-67
2022/11/12 04:39:36;;;;;;;9.20;8.40;;;;;;;;;;5011456;28;20235;-67
2022/11/12 04:44:58;;;;;;;14.57;9.33;;;5.30;99.90;;;;;;5013280;28;20210;-67
2022/11/12 04:47:32;;;;;;;9.10;8.33;;;5.30;99.90;;;;;;5013166;28;20263;-67
2022/11/12 04:49:59;;;;;;;9.77;8.87;;;5.30;99.90;;;;;;5011472;28;20192;-67
2022/11/12 04:52:26;;;;;;;10.63;7.93;;;5.30;99.90;;;;;;5012999;28;20179;-67
2022/11/12 04:54:52;;;;;;;9.90;9.03;;;5.20;99.90;;;;;;5012885;28;20234;-67
2022/11/12 04:57:17;;;;;;;17.17;9.67;;;5.20;99.90;;;;;;5012967;28;20552;-67
2022/11/12 04:59:43;;;;;;;14.63;8.83;;;5.20;99.90;;;;;;5012592;28;20200;-67
2022/11/12 05:02:09;;;;;;;8.17;7.43;;;5.20;99.90;;;;;;5012904;28;20219;-67
2022/11/12 05:04:34;;;;;;;9.17;8.27;;;5.10;99.90;;;;;;5012451;28;20187;-67
2022/11/12 05:07:00;;;;;;;8.93;8.23;;;5.10;99.90;;;;;;5013232;28;20251;-67
2022/11/12 05:09:27;;;;;;;8.93;7.80;;;5.10;99.90;;;;;;5011218;28;20204;-66
2022/11/12 05:11:56;;;;;;;9.47;8.03;;;5.10;99.90;;;;;;5012742;28;20204;-67
2022/11/12 05:14:23;;;;;;;9.13;8.33;;;5.10;99.90;;;;;;5012527;28;20849;-66
2022/11/12 05:16:49;;;;;;;10.10;9.10;;;5.10;99.90;;;;;;5011601;28;20262;-67
2022/11/12 05:19:15;;;;;;;9.97;8.97;;;5.10;99.90;;;;;;5012208;28;20191;-67
2022/11/12 05:24:25;;;;;;;10.43;9.43;;;5.10;99.90;;;;;;5012816;28;20179;-67
2022/11/12 05:26:51;;;;;;;12.70;9.73;;;5.10;99.90;;;;;;5012681;28;20205;-66
2022/11/12 05:29:17;;;;;;;14.80;10.97;;;5.10;99.90;;;;;;5012414;28;20173;-67
2022/11/12 05:31:44;;;;;;;8.93;8.17;;;5.10;99.90;;;;;;5010797;28;20653;-67
2022/11/12 05:34:09;;;;;;;9.83;8.93;;;5.10;99.90;;;;;;5012626;28;20173;-67
2022/11/12 05:36:35;;;;;;;8.97;8.17;;;5.10;99.90;;;;;;5012072;28;20212;-67
2022/11/12 05:39:01;;;;;;;11.23;8.90;;;5.10;99.90;;;;;;5010948;28;20311;-68
2022/11/12 05:41:26;;;;;;;9.33;8.63;;;5.10;99.90;;;;;;5011565;28;20219;-67
2022/11/12 05:43:52;;;;;;;8.63;7.83;;;5.20;99.90;;;;;;5012178;28;20176;-67
2022/11/12 05:46:18;;;;;;;11.90;8.83;;;5.10;99.90;;;;;;5012230;28;20231;-68
2022/11/12 05:48:43;;;;;;;10.13;9.33;;;5.20;99.90;;;;;;5012274;28;20169;-68
2022/11/12 05:51:09;;;;;;;11.10;7.73;;;5.20;99.90;;;;;;5011898;28;20191;-68
2022/11/12 05:53:35;;;;;;;11.77;9.03;;;5.10;99.90;;;;;;5012130;28;20191;-68
2022/11/12 05:56:05;;;;;;;10.10;9.13;;;6.10;99.90;;;;;;5012308;28;20180;-67
2022/11/12 05:58:31;;;;;;;9.43;8.63;;;5.10;99.90;;;;;;5011746;28;20266;-67
2022/11/12 06:00:57;;;;;;;9.47;8.70;;;5.10;99.90;;;;;;5011953;28;20208;-67
2022/11/12 06:03:23;;;;;;;10.07;8.17;;;5.10;99.90;;;;;;5011988;28;20264;-67
2022/11/12 06:05:48;;;;;;;8.90;8.27;;;5.10;99.90;;;;;;5012843;28;20195;-67
2022/11/12 06:08:14;;;;;;;10.57;9.67;;;5.10;99.90;;;;;;5012379;28;20214;-67
2022/11/12 06:10:40;;;;;;;11.30;9.97;;;5.00;99.90;;;;;;5011463;28;20223;-68
2022/11/12 06:13:06;;;;;;;12.50;8.93;;;5.00;99.90;;;;;;5011593;28;20191;-67
2022/11/12 06:15:32;;;;;;;9.60;7.97;;;5.00;99.90;;;;;;5011749;28;20180;-68
2022/11/12 06:17:57;;;;;;;12.73;10.37;;;5.00;99.90;;;;;;5010376;28;20525;-68
2022/11/12 06:20:23;;;;;;;8.47;7.77;;;5.00;99.90;;;;;;5011273;28;20207;-68
2022/11/12 06:22:49;;;;;;;10.27;9.33;;;5.00;99.90;;;;;;5011785;28;20181;-68
2022/11/12 06:25:15;;;;;;;10.47;9.47;;;5.00;99.90;;;;;;5011801;28;20164;-67
2022/11/12 06:27:41;;;;;;;9.73;8.87;;;5.00;99.90;;;;;;5010299;28;20180;-68
2022/11/12 06:30:08;;;;;;;10.30;9.30;;;4.90;99.90;;;;;;5011396;28;20195;-67
2022/11/12 06:32:34;;;;;;;14.47;9.87;;;4.90;99.90;;;;;;5011498;28;20263;-67
2022/11/12 06:34:59;;;;;;;10.63;9.63;;;5.40;99.90;;;;;;5010173;28;20303;-67
2022/11/12 06:37:25;;;;;;;10.77;9.80;;;4.90;99.90;;;;;;5011643;28;20242;-67
2022/11/12 06:39:50;;;;;;;8.80;8.10;;;4.90;99.90;;;;;;5010484;28;20263;-67
2022/11/12 06:42:16;;;;;;;10.23;9.23;;;4.90;99.90;;;;;;5011628;28;20180;-67
2022/11/12 06:44:42;;;;;;;12.07;9.17;;;4.90;99.90;;;;;;5011379;28;20180;-67
2022/11/12 06:47:08;;;;;;;9.73;8.93;;;4.90;99.90;;;;;;5011734;28;20172;-67
2022/11/12 06:49:34;;;;;;;8.63;7.93;;;4.90;99.90;;;;;;5011033;28;20596;-67
2022/11/12 06:52:00;;;;;;;9.47;8.57;;;5.00;99.90;;;;;;5015218;28;20192;-67
2022/11/12 06:54:25;;;;;;;8.90;8.10;;;5.00;99.90;;;;;;5013731;28;20180;-66
2022/11/12 06:56:51;;;;;;;9.60;8.90;;;5.00;99.90;;;;;;5015453;28;20212;-67
2022/11/12 06:59:17;;;;;;;10.13;9.13;;;5.00;99.90;;;;;;5014823;28;20180;-67
2022/11/12 07:01:42;;;;;;;10.50;8.83;;;5.00;99.90;;;;;;5015471;28;20204;-67
2022/11/12 07:04:09;;;;;;;11.20;9.13;;;5.00;99.90;;;;;;5015062;28;20672;-67
2022/11/12 07:06:35;;;;;;;9.03;8.20;;;5.00;99.90;;;;;;5015059;28;20172;-67
2022/11/12 07:09:01;;;;;;;9.53;8.63;;;5.00;99.90;;;;;;5014614;28;20176;-67
2022/11/12 07:11:27;;;;;;;9.10;8.23;;;5.10;99.90;;;;;;5038686;22;20234;-64
2022/11/12 07:13:52;;;;;;;7.90;7.30;;;5.00;99.90;;;;;;5022187;28;20176;-66
2022/11/12 07:16:18;;;;;;;9.83;8.97;;;5.00;99.90;;;;;;5033688;28;20183;-64
2022/11/12 07:18:45;;;;;;;9.30;8.57;;;5.10;99.90;;;;;;5029552;28;20580;-64
2022/11/12 07:21:14;;;;;;;11.90;10.70;;;5.10;99.90;;;;;;5018772;28;20208;-65
2022/11/12 07:23:40;;;;;;;10.93;9.20;;;5.10;99.90;;;;;;5013860;28;20224;-65
2022/11/12 07:26:11;;;;;;;10.53;9.63;;;5.10;99.90;;;;;;5014531;28;20212;-64
2022/11/12 07:28:37;;;;;;;10.77;9.73;;;5.20;99.90;;;;;;5023151;28;20183;-65
2022/11/12 07:31:06;;;;;;;13.27;9.50;;;5.20;99.90;;;;;;5022697;28;20568;-65
2022/11/12 07:33:33;;;;;;;10.80;9.03;;;5.30;99.90;;;;;;5022626;28;20267;-65
2022/11/12 07:36:25;;;;;;;10.00;9.00;;;5.30;99.90;;;;;;5021783;28;20173;-65
2022/11/12 07:38:52;;;;;;;16.93;10.23;;;5.30;99.90;;;;;;5040053;28;20193;-65
2022/11/12 07:41:26;;;;;;;13.33;11.30;;;5.40;99.90;;;;;;5037668;28;20590;-66
2022/11/12 07:43:52;;;;;;;11.73;8.77;;;5.50;99.90;;;;;;5018049;28;20179;-66
2022/11/12 07:46:21;;;;;;;10.73;9.30;;;5.50;99.90;;;;;;5020039;28;20175;-66
2022/11/12 07:48:46;;;;;;;9.20;8.40;;;5.60;99.90;;;;;;5019442;28;20203;-67
2022/11/12 07:51:19;;;;;;;11.23;10.13;;;5.60;99.90;;;;;;5018067;28;20196;-67
2022/11/12 07:53:46;;;;;;;11.03;9.67;;;5.80;99.90;;;;;;4999166;28;20177;-65
2022/11/12 07:56:15;;;;;;;15.43;9.70;;;6.20;99.90;;;;;;5002083;28;20547;-65
2022/11/12 07:58:41;;;;;;;11.73;10.53;;;6.60;99.90;;;;;;5038370;28;20617;-67
2022/11/12 08:01:32;;;;;;;14.87;12.00;;;7.00;99.90;;;;;;5038581;28;20212;-65
2022/11/12 08:03:59;;;;;;;10.87;9.70;;;7.40;99.90;;;;;;5037086;28;20583;-64
2022/11/12 08:06:26;;;;;;;13.97;9.80;;;7.80;99.90;;;;;;5031884;28;20171;-64
2022/11/12 08:08:55;;;;;;;10.77;9.77;;;8.10;99.90;;;;;;5012930;28;20192;-64
2022/11/12 08:11:22;;;;;;;9.20;8.40;;;8.30;99.90;;;;;;5013492;28;20207;-64
2022/11/12 08:13:48;;;;;;;13.37;9.07;;;8.60;99.90;;;;;;5033685;28;20176;-65
2022/11/12 08:16:14;;;;;;;10.83;9.73;;;8.80;99.90;;;;;;5025466;28;20649;-65
2022/11/12 08:18:41;;;;;;;8.03;7.43;;;8.90;99.90;;;;;;5013288;28;20191;-65
2022/11/12 08:21:08;;;;;;;9.93;8.40;;;9.10;99.90;;;;;;5015324;28;20207;-65
2022/11/12 08:23:34;;;;;;;9.47;8.67;;;9.30;99.90;;;;;;5013284;28;20191;-65
2022/11/12 08:26:01;;;;;;;8.77;7.87;;;9.60;99.90;;;;;;5014734;28;20164;-65
2022/11/12 08:28:28;;;;;;;8.17;7.30;;;9.80;99.90;;;;;;5011984;28;20561;-65
2022/11/12 08:30:55;;;;;;;9.83;7.97;;;10.10;99.90;;;;;;5013216;28;20195;-65
2022/11/12 08:33:21;;;;;;;8.60;7.80;;;10.50;99.90;;;;;;5013111;28;20676;-65
2022/11/12 08:35:47;;;;;;;9.57;7.97;;;10.80;99.90;;;;;;5016661;28;20169;-65
2022/11/12 08:38:13;;;;;;;6.90;6.20;;;11.00;99.90;;;;;;5013706;28;20176;-65
2022/11/12 08:40:39;;;;;;;7.23;6.63;;;11.20;99.90;;;;;;5013103;28;20283;-65
2022/11/12 08:43:09;;;;;;;7.90;7.20;;;11.40;99.90;;;;;;4994087;28;20215;-65
2022/11/12 08:45:37;;;;;;;10.30;6.80;;;11.50;99.90;;;;;;4994659;28;20646;-65
2022/11/12 08:48:14;;;;;;;7.83;7.13;;;11.80;99.90;;;;;;4996266;28;20618;-65
2022/11/12 08:50:40;;;;;;;7.73;7.13;;;11.90;99.90;;;;;;5014048;28;20871;-65
2022/11/12 08:53:08;;;;;;;7.53;6.70;;;12.00;99.90;;;;;;5015815;28;20184;-65
2022/11/12 08:55:35;;;;;;;7.77;7.07;;;12.10;99.90;;;;;;5013553;28;20549;-65
2022/11/12 08:58:02;;;;;;;6.63;6.17;;;12.20;99.90;;;;;;5012150;28;20183;-65
2022/11/12 09:00:29;;;;;;;8.20;7.60;;;12.10;99.90;;;;;;5010433;28;20199;-65
2022/11/12 09:02:55;;;;;;;6.07;5.57;;;11.80;99.90;;;;;;5013250;28;20206;-65
2022/11/12 09:05:21;;;;;;;6.87;5.80;;;12.10;99.90;;;;;;5011525;28;20208;-65
2022/11/12 09:07:46;;;;;;;6.10;5.70;;;12.20;99.90;;;;;;5011675;28;20625;-65
2022/11/12 09:10:12;;;;;;;5.57;5.17;;;12.20;92.90;;;;;;5029143;28;20176;-65
2022/11/12 09:12:38;;;;;;;6.10;5.50;;;12.10;92.70;;;;;;5030844;28;20680;-65
2022/11/12 09:15:05;;;;;;;5.70;5.27;;;12.00;99.90;;;;;;5032436;28;20190;-65
2022/11/12 09:17:31;;;;;;;6.63;5.70;;;12.00;99.90;;;;;;5047609;28;20194;-65
2022/11/12 09:19:57;;;;;;;6.10;5.53;;;12.20;99.90;;;;;;5032128;28;20222;-65
2022/11/12 09:22:23;;;;;;;5.23;4.83;;;12.50;99.90;;;;;;5032354;28;20660;-65
2022/11/12 09:24:48;;;;;;;5.40;4.90;;;12.70;54.80;;;;;;5032180;28;20221;-65
2022/11/12 09:27:14;;;;;;;5.40;4.90;;;13.00;99.90;;;;;;5032378;28;20250;-65
2022/11/12 09:29:39;;;;;;;7.43;5.87;;;13.20;47.40;;;;;;5029692;28;20191;-65
2022/11/12 09:32:05;;;;;;;6.33;5.47;;;13.20;1.00;;;;;;5029855;28;20203;-65
2022/11/12 09:34:30;;;;;;;5.93;5.33;;;13.20;1.00;;;;;;5014368;28;20267;-64
2022/11/12 09:36:56;;;;;;;10.87;5.30;;;13.30;6.20;;;;;;5021942;28;20548;-65
2022/11/12 09:39:22;;;;;;;5.77;5.27;;;13.30;1.00;;;;;;5029374;28;20172;-65
2022/11/12 09:41:47;;;;;;;6.63;4.90;;;12.90;1.00;;;;;;5012849;28;20213;-65
2022/11/12 09:44:19;;;;;;;5.20;4.80;;;12.70;1.00;;;;;;5011323;28;20168;-65
2022/11/12 09:47:03;;;;;;;5.93;5.43;;;12.60;14.90;;;;;;5016196;28;20183;-65
2022/11/12 09:49:47;;;;;;;5.20;4.80;;;12.70;14.00;;;;;;5013104;28;20176;-65
2022/11/12 09:52:23;;;;;;;5.20;4.90;;;12.90;13.10;;;;;;5020781;28;20198;-65
2022/11/12 09:55:27;;;;;;;6.50;5.90;;;13.10;8.10;;;;;;5023763;28;20555;-65
2022/11/12 09:57:53;;;;;;;5.67;5.27;;;13.30;1.00;;;;;;4994187;28;20188;-64
2022/11/12 10:00:20;;;;;;;6.37;5.87;;;13.50;1.00;;;;;;5012288;28;20206;-65
2022/11/12 10:03:21;;;;;;;7.97;5.40;;;13.70;1.00;;;;;;5014127;28;20169;-64
2022/11/12 10:05:55;;;;;;;5.13;4.80;;;13.80;1.00;;;;;;5011966;28;20663;-65
2022/11/12 10:08:46;;;;;;;6.03;5.53;;;13.80;99.90;;;;;;5001310;28;20202;-65
2022/11/12 10:12:30;;;;;;;5.57;5.20;;;13.80;99.90;;;;;;5010307;28;20215;-65
2022/11/12 10:14:33;;;;;;;5.03;4.73;;;13.70;99.90;;;;;;4992064;28;20264;-65
2022/11/12 10:17:17;;;;;;;6.00;5.50;;;13.50;99.90;;;;;;4991037;28;20179;-65
2022/11/12 10:20:07;;;;;;;6.97;5.27;;;13.40;99.90;;;;;;4996377;28;20566;-65
2022/11/12 10:22:44;;;;;;;7.87;5.77;;;13.50;99.90;;;;;;5042623;28;20845;-64
2022/11/12 10:25:18;;;;;;;4.83;4.47;;;13.50;99.90;;;;;;5025643;28;20549;-65
2022/11/12 10:27:44;;;;;;;5.80;5.40;;;13.70;99.90;;;;;;5014899;28;20186;-65
2022/11/12 10:30:22;;;;;;;6.97;5.77;;;13.80;99.90;;;;;;5027930;28;20191;-65
2022/11/12 10:32:49;;;;;;;5.70;5.20;;;14.00;99.90;;;;;;5031038;28;20644;-65
2022/11/12 10:35:18;;;;;;;5.70;5.20;;;14.10;99.90;;;;;;5023510;28;20203;-66
2022/11/12 10:37:51;;;;;;;4.37;4.07;;;14.10;99.90;;;;;;5042940;28;20180;-65
2022/11/12 10:40:20;;;;;;;5.37;4.97;;;14.50;99.90;;;;;;5017023;28;20207;-65
2022/11/12 10:43:00;;;;;;;5.17;4.77;;;14.80;99.90;;;;;;5030787;28;20187;-65
2022/11/12 10:45:27;;;;;;;5.40;5.00;;;14.90;99.90;;;;;;5026242;28;20241;-65
2022/11/12 10:47:52;;;;;;;4.90;4.50;;;14.90;99.90;;;;;;5029113;28;20288;-65
2022/11/12 10:50:28;;;;;;;5.47;4.97;;;15.00;99.90;;;;;;5027614;28;20259;-65
2022/11/12 10:53:00;;;;;;;5.17;4.33;;;15.20;99.90;;;;;;5018227;28;20190;-65
2022/11/12 10:55:30;;;;;;;5.17;4.77;;;15.40;99.90;;;;;;5030633;28;20668;-65
2022/11/12 10:58:08;;;;;;;4.97;4.57;;;15.50;99.90;;;;;;5019940;28;20192;-65
2022/11/12 11:00:34;;;;;;;5.47;5.07;;;15.50;99.90;;;;;;5022676;28;20222;-65
2022/11/12 11:03:06;;;;;;;5.17;4.67;;;15.40;99.90;;;;;;5030679;28;20591;-65
2022/11/12 11:05:47;;;;;;;5.03;4.60;;;15.40;99.90;;;;;;5014014;28;20177;-65
2022/11/12 11:08:13;;;;;;;4.60;4.30;;;15.50;99.90;;;;;;5011396;28;20176;-65
2022/11/12 11:10:39;;;;;;;4.73;4.40;;;15.70;99.90;;;;;;5029348;28;20296;-65
2022/11/12 11:13:27;;;;;;;5.20;4.70;;;15.90;99.90;;;;;;5017786;28;20190;-65
2022/11/12 11:16:00;;;;;;;5.27;4.87;;;16.00;99.90;;;;;;5028032;28;20557;-65
2022/11/12 11:18:28;;;;;;;5.13;4.73;;;15.90;99.90;;;;;;4998972;28;20719;-66
2022/11/12 11:21:12;;;;;;;5.17;4.77;;;15.90;99.90;;;;;;5030376;28;20200;-65
2022/11/12 11:24:06;;;;;;;4.90;4.60;;;15.80;99.90;;;;;;4995427;28;20271;-65
2022/11/12 11:26:37;;;;;;;4.77;4.47;;;15.90;99.90;;;;;;5022864;28;20491;-65
2022/11/12 11:29:42;;;;;;;5.00;4.60;;;16.10;99.90;;;;;;5030053;28;20176;-65
2022/11/12 11:32:26;;;;;;;4.80;4.40;;;16.40;99.90;;;;;;5027442;28;20295;-65
2022/11/12 11:35:15;;;;;;;5.37;4.97;;;16.60;99.90;;;;;;4990351;28;20181;-65
2022/11/12 11:38:02;;;;;;;5.57;4.53;;;16.70;99.90;;;;;;5001786;28;20218;-65
2022/11/12 11:40:52;;;;;;;5.00;4.67;;;16.80;99.90;;;;;;5023127;28;20220;-65
2022/11/12 11:43:21;;;;;;;5.57;4.43;;;17.00;99.90;;;;;;5014595;28;20203;-66
2022/11/12 11:45:49;;;;;;;4.67;4.30;;;17.00;99.90;;;;;;5024963;28;20180;-66
2022/11/12 11:48:21;;;;;;;4.20;3.90;;;16.90;99.90;;;;;;5034014;28;20616;-66
2022/11/12 11:51:03;;;;;;;4.57;4.20;;;16.80;99.90;;;;;;5032352;28;20565;-64
2022/11/12 11:53:56;;;;;;;4.10;3.87;;;16.90;99.90;;;;;;5023066;28;20266;-65
2022/11/12 11:56:28;;;;;;;4.97;4.67;;;17.00;99.90;;;;;;5018710;28;20668;-65
2022/11/12 11:59:00;;;;;;;4.87;4.47;;;17.00;99.90;;;;;;5025938;28;20217;-65
2022/11/12 12:01:51;;;;;;;5.60;5.10;;;16.70;99.90;;;;;;5024958;28;20298;-64
2022/11/12 12:04:39;;;;;;;4.77;4.37;;;16.50;99.90;;;;;;5032349;28;20534;-65
2022/11/12 12:07:22;;;;;;;5.50;5.00;;;16.30;99.90;;;;;;5029750;28;21088;-65
2022/11/12 12:09:56;;;;;;;4.60;4.27;;;16.30;99.90;;;;;;5013664;28;20542;-67
2022/11/12 12:12:40;;;;;;;4.67;4.27;;;16.50;99.90;;;;;;5023400;28;20219;-65
2022/11/12 12:15:44;;;;;;;5.03;4.10;;;16.50;99.90;;;;;;5033324;28;20199;-65
2022/11/12 12:18:36;;;;;;;4.40;4.00;;;16.70;99.90;;;;;;5017300;28;20242;-65
2022/11/12 12:21:07;;;;;;;4.50;4.10;;;16.90;99.90;;;;;;5021664;28;20586;-65
2022/11/12 12:23:35;;;;;;;4.67;4.37;;;17.10;99.90;;;;;;5033163;28;20171;-65
2022/11/12 12:26:10;;;;;;;4.93;4.40;;;17.10;99.90;;;;;;5033044;28;20184;-64
2022/11/12 12:28:50;;;;;;;4.70;4.40;;;17.00;99.90;;;;;;5033152;28;20184;-64
2022/11/12 12:31:21;;;;;;;4.73;4.30;;;17.00;99.90;;;;;;5032336;28;20203;-66
2022/11/12 12:33:57;;;;;;;4.77;4.40;;;17.10;99.90;;;;;;5033311;28;20178;-66
2022/11/12 12:36:35;;;;;;;4.83;4.27;;;17.30;99.90;;;;;;5021689;28;20180;-66
2022/11/12 12:39:09;;;;;;;5.43;4.93;;;17.30;99.90;;;;;;5010723;28;20685;-66
2022/11/12 12:42:02;;;;;;;5.03;4.53;;;17.40;99.90;;;;;;5013111;28;20274;-66
2022/11/12 12:47:25;;;;;;;5.53;5.03;;;17.70;99.90;;;;;;5032662;28;20183;-66
2022/11/12 12:49:52;;;;;;;4.90;4.50;;;17.70;99.90;;;;;;5020946;28;20278;-66
2022/11/12 12:52:17;;;;;;;5.03;4.53;;;17.70;99.90;;;;;;5011604;28;20619;-66
2022/11/12 12:54:49;;;;;;;4.90;4.40;;;17.80;99.90;;;;;;5022294;28;20187;-66
2022/11/12 12:57:36;;;;;;;4.50;4.20;;;17.90;99.90;;;;;;5032820;28;20183;-66
2022/11/12 13:00:25;;;;;;;5.17;4.67;;;17.70;99.90;;;;;;5014957;28;20208;-66
2022/11/12 13:02:52;;;;;;;5.10;4.47;;;17.50;99.90;;;;;;5011693;28;20533;-66
2022/11/12 13:05:39;;;;;;;5.50;4.93;;;17.40;99.90;;;;;;5031294;28;20180;-66
2022/11/12 13:08:19;;;;;;;4.77;4.47;;;17.30;99.90;;;;;;5030800;28;20580;-66
2022/11/12 13:10:47;;;;;;;4.80;4.23;;;17.30;99.90;;;;;;5011334;28;20293;-66
2022/11/12 13:13:16;;;;;;;5.20;4.67;;;17.20;99.90;;;;;;5013427;28;20249;-66
2022/11/12 13:15:53;;;;;;;5.30;4.87;;;17.20;99.90;;;;;;5032253;28;20183;-66
2022/11/12 13:18:37;;;;;;;5.47;4.97;;;17.40;99.90;;;;;;5029006;28;20193;-66
2022/11/12 13:21:08;;;;;;;6.53;5.63;;;17.60;99.90;;;;;;5008739;28;20213;-66
2022/11/12 13:26:50;;;;;;;6.90;5.70;;;18.10;99.90;;;;;;5031445;28;20208;-66
2022/11/12 13:29:28;;;;;;;7.43;6.73;;;18.20;99.90;;;;;;5012434;28;20180;-66
2022/11/12 13:32:51;;;;;;;8.27;6.60;;;18.30;99.90;;;;;;5012067;28;20697;-66
2022/11/12 13:35:19;;;;;;;5.73;5.17;;;18.40;99.90;;;;;;5009479;28;20279;-66
2022/11/12 13:38:07;;;;;;;6.60;5.90;;;18.50;99.90;;;;;;5022712;28;20187;-66